Time;durP1;ratioP1;P1;durP2;ratioP2;P2;SDS_P1;SDS_P2;PMS_P1;PMS_P2;Temp;Humidity;BMP_temperature;BMP_pressure;BME280_temperature;BME280_humidity;BME280_pressure;Samples;Min_cycle;Max_cycle;Signal;HPM_P1;HPM_P2
2023/03/01 00:00:07;;;;;;;10.87;6.57;;;3.00;99.90;;;;;;5100270;28;20422;-66
2023/03/01 00:02:39;;;;;;;23.07;9.53;;;3.00;99.90;;;;;;5100228;28;20497;-66
2023/03/01 00:05:07;;;;;;;13.93;8.83;;;2.90;99.90;;;;;;5100066;28;20430;-65
2023/03/01 00:07:34;;;;;;;16.00;10.00;;;2.90;99.90;;;;;;5099666;28;20449;-67
2023/03/01 00:10:04;;;;;;;20.87;9.13;;;2.80;99.90;;;;;;5099231;28;20429;-67
2023/03/01 00:12:36;;;;;;;15.07;7.40;;;2.80;99.90;;;;;;5100107;28;20476;-67
2023/03/01 00:15:04;;;;;;;15.93;9.57;;;2.80;99.90;;;;;;5098751;28;20457;-66
2023/03/01 00:17:31;;;;;;;11.27;7.57;;;2.70;99.90;;;;;;5099365;28;20493;-66
2023/03/01 00:19:59;;;;;;;12.80;8.63;;;2.60;99.90;;;;;;5099253;28;20433;-68
2023/03/01 00:22:29;;;;;;;16.10;10.07;;;2.60;99.90;;;;;;5098911;28;20442;-67
2023/03/01 00:24:56;;;;;;;16.97;8.40;;;2.50;99.90;;;;;;5098367;28;20437;-66
2023/03/01 00:27:22;;;;;;;12.17;7.33;;;2.50;99.90;;;;;;5098651;28;20449;-66
2023/03/01 00:29:51;;;;;;;11.97;6.50;;;2.50;99.90;;;;;;5098404;28;20471;-65
2023/03/01 00:32:18;;;;;;;12.13;8.07;;;2.40;99.90;;;;;;5098370;28;20430;-66
2023/03/01 00:34:53;;;;;;;15.17;8.13;;;2.40;99.90;;;;;;5098298;28;20486;-65
2023/03/01 00:37:24;;;;;;;19.63;9.00;;;2.30;99.90;;;;;;5097090;28;20468;-67
2023/03/01 00:39:51;;;;;;;14.90;7.30;;;2.30;99.90;;;;;;5096673;28;20449;-66
2023/03/01 00:42:18;;;;;;;13.83;6.30;;;2.20;99.90;;;;;;5097717;28;20452;-68
2023/03/01 00:44:45;;;;;;;12.50;8.23;;;2.20;99.90;;;;;;5097652;28;20415;-66
2023/03/01 00:47:13;;;;;;;17.50;7.33;;;2.20;99.90;;;;;;5097745;28;20462;-67
2023/03/01 00:49:40;;;;;;;10.97;6.57;;;2.20;99.90;;;;;;5097934;28;20474;-66
2023/03/01 00:52:07;;;;;;;12.10;8.00;;;2.20;99.90;;;;;;5098367;28;20458;-66
2023/03/01 00:54:38;;;;;;;14.60;8.37;;;2.20;99.90;;;;;;5098225;28;20470;-67
2023/03/01 00:57:05;;;;;;;13.67;7.80;;;2.20;99.90;;;;;;5098494;28;20463;-67
2023/03/01 00:59:32;;;;;;;14.13;8.20;;;2.20;99.90;;;;;;5098225;28;20429;-68
2023/03/01 01:01:59;;;;;;;20.60;10.17;;;2.20;99.90;;;;;;5097925;28;20434;-65
2023/03/01 01:04:26;;;;;;;15.27;9.13;;;2.30;99.90;;;;;;5097050;28;20498;-66
2023/03/01 01:06:53;;;;;;;12.63;8.30;;;2.30;99.90;;;;;;5097445;28;20423;-66
2023/03/01 01:09:20;;;;;;;15.50;10.33;;;2.30;99.90;;;;;;5097692;28;20965;-63
2023/03/01 01:11:50;;;;;;;25.37;9.30;;;2.30;99.90;;;;;;5097554;28;20425;-66
2023/03/01 01:14:19;;;;;;;16.17;9.20;;;2.40;99.90;;;;;;5097694;28;20505;-66
2023/03/01 01:16:46;;;;;;;11.87;7.73;;;2.40;99.90;;;;;;5096854;28;20442;-66
2023/03/01 01:19:14;;;;;;;38.00;9.40;;;2.40;99.90;;;;;;5097066;28;20466;-67
2023/03/01 01:21:43;;;;;;;10.67;8.57;;;2.40;99.90;;;;;;5096901;28;20413;-66
2023/03/01 01:24:10;;;;;;;13.70;7.83;;;2.40;99.90;;;;;;5096752;28;20430;-67
2023/03/01 01:26:37;;;;;;;14.93;8.60;;;2.40;99.90;;;;;;5096840;28;20465;-66
2023/03/01 01:29:06;;;;;;;15.57;8.57;;;2.40;99.90;;;;;;5096667;28;20430;-67
2023/03/01 01:31:34;;;;;;;16.37;8.80;;;2.40;99.90;;;;;;5096217;28;20998;-66
2023/03/01 01:34:02;;;;;;;14.77;8.70;;;2.50;99.90;;;;;;5096173;28;20502;-67
2023/03/01 01:36:30;;;;;;;15.27;8.07;;;2.50;99.90;;;;;;5096007;28;20481;-65
2023/03/01 01:38:57;;;;;;;20.60;10.17;;;2.50;99.90;;;;;;5096495;28;20422;-64
2023/03/01 01:41:26;;;;;;;15.87;8.13;;;2.50;99.90;;;;;;5096210;28;20426;-67
2023/03/01 01:44:13;;;;;;;11.83;6.73;;;2.60;99.90;;;;;;5096278;28;20427;-66
2023/03/01 01:46:43;;;;;;;9.77;6.40;;;2.60;99.90;;;;;;5096766;28;20418;-67
2023/03/01 01:49:24;;;;;;;9.97;7.40;;;2.50;99.90;;;;;;5095522;28;20441;-67
2023/03/01 01:51:59;;;;;;;11.80;7.90;;;2.50;99.90;;;;;;5096599;28;20399;-66
2023/03/01 01:54:31;;;;;;;15.13;6.43;;;2.50;99.90;;;;;;5096137;28;20457;-65
2023/03/01 01:57:05;;;;;;;15.80;7.63;;;2.40;99.90;;;;;;5097156;28;20426;-64
2023/03/01 01:59:34;;;;;;;14.73;7.30;;;2.40;99.90;;;;;;5096860;28;20468;-66
2023/03/01 02:02:04;;;;;;;16.57;7.87;;;2.40;99.90;;;;;;5096568;28;20472;-65
2023/03/01 02:04:35;;;;;;;14.30;9.10;;;2.40;99.90;;;;;;5095793;28;20851;-66
2023/03/01 02:07:08;;;;;;;13.07;8.00;;;2.40;99.90;;;;;;5095357;28;20437;-64
2023/03/01 02:09:36;;;;;;;16.00;8.13;;;2.30;99.90;;;;;;5095893;28;20488;-65
2023/03/01 02:12:04;;;;;;;15.97;8.60;;;2.30;99.90;;;;;;5095653;28;20453;-66
2023/03/01 02:14:33;;;;;;;16.03;7.13;;;2.20;99.90;;;;;;5095250;28;20482;-65
2023/03/01 02:17:00;;;;;;;10.90;6.30;;;2.10;99.90;;;;;;5095875;28;20454;-66
2023/03/01 02:19:38;;;;;;;16.43;6.47;;;2.10;99.90;;;;;;5096127;28;20503;-67
2023/03/01 02:22:16;;;;;;;19.20;8.00;;;2.00;99.90;;;;;;5096429;28;20481;-68
2023/03/01 02:24:53;;;;;;;12.40;6.77;;;2.00;99.90;;;;;;5096361;28;20453;-66
2023/03/01 02:27:27;;;;;;;12.07;6.50;;;1.90;99.90;;;;;;5119296;22;20521;-61
2023/03/01 02:29:56;;;;;;;10.07;6.37;;;1.90;99.90;;;;;;5094326;28;20431;-61
2023/03/01 02:32:24;;;;;;;14.00;7.93;;;2.10;99.90;;;;;;5094459;28;20477;-61
2023/03/01 02:34:55;;;;;;;11.00;6.60;;;1.80;99.90;;;;;;5094066;28;20462;-62
2023/03/01 02:37:25;;;;;;;9.30;6.23;;;1.80;99.90;;;;;;5094351;28;20453;-62
2023/03/01 02:39:58;;;;;;;9.27;6.10;;;1.80;99.90;;;;;;5094308;28;20431;-61
2023/03/01 02:42:31;;;;;;;11.70;6.77;;;1.80;99.90;;;;;;5094242;28;20450;-62
2023/03/01 02:44:59;;;;;;;13.73;8.00;;;1.80;99.90;;;;;;5094074;28;20445;-60
2023/03/01 02:47:27;;;;;;;10.53;6.73;;;1.80;99.90;;;;;;5094175;28;20461;-62
2023/03/01 02:49:57;;;;;;;11.47;6.90;;;1.90;99.90;;;;;;5094560;28;20469;-62
2023/03/01 02:52:50;;;;;;;11.50;6.40;;;1.90;99.90;;;;;;5094188;28;20430;-62
2023/03/01 02:55:22;;;;;;;11.80;8.43;;;2.00;99.90;;;;;;5094494;28;20481;-62
2023/03/01 02:57:59;;;;;;;11.27;6.77;;;2.00;99.90;;;;;;5094866;28;20450;-66
2023/03/01 03:00:39;;;;;;;8.67;6.20;;;2.00;99.90;;;;;;5096028;28;20462;-64
2023/03/01 03:03:07;;;;;;;13.10;6.63;;;2.00;99.90;;;;;;5098675;28;20426;-63
2023/03/01 03:05:37;;;;;;;10.27;7.50;;;1.90;99.90;;;;;;5099019;28;20449;-60
2023/03/01 03:08:07;;;;;;;17.80;8.33;;;1.80;99.90;;;;;;5099103;28;20434;-65
2023/03/01 03:10:37;;;;;;;17.00;7.83;;;1.70;99.90;;;;;;5098040;28;20435;-61
2023/03/01 03:13:06;;;;;;;10.20;6.13;;;1.70;99.90;;;;;;5097424;28;20426;-60
2023/03/01 03:15:36;;;;;;;7.73;6.20;;;1.60;99.90;;;;;;5097566;28;20508;-62
2023/03/01 03:18:05;;;;;;;8.20;6.30;;;1.60;99.90;;;;;;5098287;28;20502;-61
2023/03/01 03:20:32;;;;;;;9.23;6.70;;;1.60;99.90;;;;;;5097618;28;20442;-61
2023/03/01 03:23:00;;;;;;;11.57;5.57;;;1.60;99.90;;;;;;5098521;28;20481;-60
2023/03/01 03:25:31;;;;;;;10.13;5.70;;;1.60;99.90;;;;;;5099310;28;20433;-61
2023/03/01 03:27:59;;;;;;;8.27;5.63;;;1.80;99.90;;;;;;5098570;28;20478;-60
2023/03/01 03:30:29;;;;;;;16.03;6.80;;;1.50;99.90;;;;;;5098970;28;20441;-61
2023/03/01 03:32:59;;;;;;;10.50;7.33;;;1.50;99.90;;;;;;5098810;28;20426;-60
2023/03/01 03:35:32;;;;;;;9.17;5.47;;;1.40;99.90;;;;;;5099372;28;20458;-61
2023/03/01 03:38:05;;;;;;;11.37;7.90;;;1.40;99.90;;;;;;5099478;28;20418;-59
2023/03/01 03:40:35;;;;;;;15.87;7.70;;;1.40;99.90;;;;;;5099501;28;20438;-62
2023/03/01 03:43:05;;;;;;;9.70;6.37;;;1.40;99.90;;;;;;5099402;28;20445;-57
2023/03/01 03:45:33;;;;;;;14.83;6.90;;;1.30;99.90;;;;;;5099612;28;20458;-58
2023/03/01 03:48:04;;;;;;;39.77;8.47;;;1.30;99.90;;;;;;5099321;28;20452;-56
2023/03/01 03:50:31;;;;;;;10.90;6.40;;;1.20;99.90;;;;;;5097940;28;20504;-58
2023/03/01 03:53:05;;;;;;;15.20;6.67;;;1.20;99.90;;;;;;5096773;28;20446;-60
2023/03/01 03:55:33;;;;;;;12.70;6.73;;;1.20;99.90;;;;;;5096449;28;20469;-60
2023/03/01 03:58:06;;;;;;;12.40;6.67;;;1.10;99.90;;;;;;5097189;28;20433;-61
2023/03/01 04:00:33;;;;;;;12.60;7.00;;;1.20;99.90;;;;;;5096159;28;20421;-60
2023/03/01 04:03:02;;;;;;;8.47;5.00;;;1.10;99.90;;;;;;5096530;28;20434;-61
2023/03/01 04:05:31;;;;;;;16.13;8.00;;;1.10;99.90;;;;;;5096110;28;20462;-62
2023/03/01 04:08:02;;;;;;;12.17;7.37;;;1.10;99.90;;;;;;5095699;28;20462;-61
2023/03/01 04:10:30;;;;;;;13.03;6.37;;;1.10;99.90;;;;;;5096565;28;20458;-60
2023/03/01 04:12:57;;;;;;;17.27;8.70;;;1.10;99.90;;;;;;5096782;28;20470;-61
2023/03/01 04:15:25;;;;;;;19.90;8.70;;;1.10;99.90;;;;;;5096135;28;20470;-60
2023/03/01 04:17:54;;;;;;;17.27;6.10;;;1.00;99.90;;;;;;5096984;28;20455;-60
2023/03/01 04:20:25;;;;;;;15.40;7.30;;;1.00;99.90;;;;;;5096811;28;20466;-61
2023/03/01 04:22:56;;;;;;;11.73;6.30;;;1.00;99.90;;;;;;5096392;28;20502;-61
2023/03/01 04:25:23;;;;;;;10.67;6.53;;;0.90;99.90;;;;;;5096340;28;20429;-59
2023/03/01 04:27:49;;;;;;;13.07;6.30;;;0.90;99.90;;;;;;5096563;28;20910;-61
2023/03/01 04:30:19;;;;;;;12.50;7.47;;;0.70;99.90;;;;;;5096543;28;20494;-60
2023/03/01 04:32:46;;;;;;;11.30;7.40;;;0.70;99.90;;;;;;5097281;28;20481;-60
2023/03/01 04:35:13;;;;;;;11.33;6.33;;;0.60;99.90;;;;;;5096766;28;20502;-62
2023/03/01 04:37:41;;;;;;;17.03;8.00;;;0.60;99.90;;;;;;5096416;28;20438;-60
2023/03/01 04:40:15;;;;;;;11.07;6.80;;;0.60;99.90;;;;;;5096735;28;20467;-57
2023/03/01 04:42:44;;;;;;;12.70;7.00;;;0.60;99.90;;;;;;5098667;28;20449;-58
2023/03/01 04:45:13;;;;;;;12.43;7.93;;;0.60;99.90;;;;;;5098610;28;20489;-59
2023/03/01 04:47:42;;;;;;;20.60;8.63;;;0.60;99.90;;;;;;5098769;28;20465;-59
2023/03/01 04:50:11;;;;;;;17.20;8.47;;;0.60;99.90;;;;;;5097636;28;20430;-60
2023/03/01 04:52:38;;;;;;;16.50;6.73;;;0.60;99.90;;;;;;5097362;28;20430;-60
2023/03/01 04:55:07;;;;;;;14.63;8.73;;;0.60;99.90;;;;;;5097383;28;20469;-60
2023/03/01 04:57:34;;;;;;;14.70;8.00;;;0.60;99.90;;;;;;5097582;28;20470;-59
2023/03/01 05:00:19;;;;;;;18.53;8.90;;;0.60;99.90;;;;;;5096429;28;20439;-61
2023/03/01 05:02:52;;;;;;;13.97;8.47;;;0.50;99.90;;;;;;5095900;28;20470;-61
2023/03/01 05:05:25;;;;;;;19.90;9.20;;;0.50;99.90;;;;;;5095765;28;20423;-62
2023/03/01 05:07:56;;;;;;;21.50;9.97;;;0.50;99.90;;;;;;5095261;28;20439;-60
2023/03/01 05:10:31;;;;;;;15.00;7.20;;;0.60;99.90;;;;;;5095590;28;20449;-62
2023/03/01 05:12:59;;;;;;;10.57;6.90;;;0.50;99.90;;;;;;5094583;28;20430;-61
2023/03/01 05:15:31;;;;;;;16.93;10.60;;;0.50;99.90;;;;;;5095148;28;20482;-61
2023/03/01 05:18:01;;;;;;;11.43;7.03;;;0.50;99.90;;;;;;5091164;28;20437;-59
2023/03/01 05:20:36;;;;;;;20.83;7.63;;;0.50;99.90;;;;;;5095914;28;20470;-59
2023/03/01 05:23:06;;;;;;;12.63;6.43;;;0.50;99.90;;;;;;5094587;28;20442;-61
2023/03/01 05:25:39;;;;;;;12.80;7.73;;;0.50;99.90;;;;;;5094561;28;20469;-62
2023/03/01 05:28:10;;;;;;;19.43;9.80;;;0.50;99.90;;;;;;5094144;28;20461;-62
2023/03/01 05:30:38;;;;;;;11.00;7.70;;;0.50;99.90;;;;;;5095358;28;20469;-61
2023/03/01 05:33:12;;;;;;;12.20;6.83;;;0.50;99.90;;;;;;5095298;28;20473;-61
2023/03/01 05:35:40;;;;;;;23.60;9.73;;;0.50;99.90;;;;;;5094697;28;20465;-61
2023/03/01 05:38:07;;;;;;;14.50;9.47;;;0.50;99.90;;;;;;5094242;28;20433;-60
2023/03/01 05:40:36;;;;;;;14.53;8.37;;;0.50;99.90;;;;;;5078561;28;20451;-61
2023/03/01 05:43:04;;;;;;;13.60;8.83;;;0.50;99.90;;;;;;5073776;28;20506;-59
2023/03/01 05:45:33;;;;;;;16.70;7.30;;;0.50;99.90;;;;;;5073405;28;20450;-60
2023/03/01 05:48:00;;;;;;;19.27;8.83;;;0.50;99.90;;;;;;5074392;28;20467;-60
2023/03/01 05:50:29;;;;;;;12.00;8.20;;;0.60;99.90;;;;;;5073840;28;20459;-60
2023/03/01 05:53:00;;;;;;;17.80;8.97;;;0.60;99.90;;;;;;5074306;28;20471;-57
2023/03/01 05:55:29;;;;;;;17.83;10.10;;;0.60;99.90;;;;;;5075627;28;20510;-58
2023/03/01 05:57:59;;;;;;;16.53;7.30;;;0.60;99.90;;;;;;5075695;28;20439;-61
2023/03/01 06:00:26;;;;;;;17.30;8.33;;;0.50;99.90;;;;;;5074210;28;20460;-61
2023/03/01 06:02:57;;;;;;;12.83;6.47;;;0.50;99.90;;;;;;5079362;28;20470;-57
2023/03/01 06:05:25;;;;;;;19.37;7.97;;;0.50;99.90;;;;;;5090462;28;20466;-62
2023/03/01 06:07:52;;;;;;;16.50;7.87;;;0.40;99.90;;;;;;5077200;28;20426;-60
2023/03/01 06:10:21;;;;;;;17.57;8.03;;;0.40;99.90;;;;;;5089408;28;20465;-61
2023/03/01 06:12:51;;;;;;;11.70;7.33;;;0.40;99.90;;;;;;5095431;28;20494;-60
2023/03/01 06:15:19;;;;;;;19.47;8.07;;;0.40;99.90;;;;;;5095290;28;20481;-62
2023/03/01 06:17:48;;;;;;;17.20;8.43;;;0.50;99.90;;;;;;5095904;28;20446;-62
2023/03/01 06:20:16;;;;;;;14.10;7.93;;;0.50;99.90;;;;;;5081791;28;20478;-61
2023/03/01 06:22:44;;;;;;;16.40;8.23;;;0.50;99.90;;;;;;5075804;28;20605;-61
2023/03/01 06:25:12;;;;;;;10.43;7.47;;;0.60;99.90;;;;;;5084046;28;20459;-62
2023/03/01 06:27:40;;;;;;;13.23;7.07;;;0.70;99.90;;;;;;5086041;28;20486;-61
2023/03/01 06:30:10;;;;;;;13.97;7.40;;;0.60;99.90;;;;;;5088808;28;20450;-61
2023/03/01 06:32:41;;;;;;;13.80;8.27;;;0.70;99.90;;;;;;5081887;28;20509;-60
2023/03/01 06:35:09;;;;;;;13.10;7.63;;;0.70;99.90;;;;;;5083822;28;20537;-61
2023/03/01 06:37:38;;;;;;;17.90;7.93;;;0.70;99.90;;;;;;5090528;28;20460;-60
2023/03/01 06:40:07;;;;;;;14.20;7.90;;;0.80;99.90;;;;;;5097322;28;20418;-62
2023/03/01 06:42:35;;;;;;;14.40;8.00;;;0.80;99.90;;;;;;5091131;28;20440;-60
2023/03/01 06:45:01;;;;;;;22.63;8.37;;;0.80;99.90;;;;;;5087016;28;20441;-61
2023/03/01 06:47:28;;;;;;;13.60;7.80;;;0.90;99.90;;;;;;5092948;28;20427;-59
2023/03/01 06:49:57;;;;;;;18.23;7.80;;;0.90;99.90;;;;;;5091221;28;20483;-61
2023/03/01 06:52:23;;;;;;;19.70;10.13;;;0.90;99.90;;;;;;5089351;28;20442;-62
2023/03/01 06:54:50;;;;;;;12.10;7.73;;;1.00;99.90;;;;;;5086860;28;20478;-60
2023/03/01 06:57:17;;;;;;;13.00;8.07;;;1.00;99.90;;;;;;5090408;28;20434;-61
2023/03/01 06:59:44;;;;;;;17.00;8.70;;;1.00;99.90;;;;;;5086918;28;20459;-61
2023/03/01 07:02:12;;;;;;;19.70;8.93;;;1.10;99.90;;;;;;5094668;28;20449;-61
2023/03/01 07:04:39;;;;;;;21.20;8.63;;;1.20;99.90;;;;;;5099160;28;20438;-61
2023/03/01 07:07:08;;;;;;;17.57;9.53;;;1.20;99.90;;;;;;5099502;28;20430;-61
2023/03/01 07:09:35;;;;;;;17.37;9.20;;;1.30;99.90;;;;;;5089550;28;20446;-59
2023/03/01 07:12:02;;;;;;;10.93;7.80;;;1.40;99.90;;;;;;5093229;28;20481;-62
2023/03/01 07:14:29;;;;;;;11.27;8.77;;;1.40;99.90;;;;;;5083594;28;20446;-61
2023/03/01 07:16:56;;;;;;;20.40;9.10;;;1.40;99.90;;;;;;5100370;28;20462;-57
2023/03/01 07:19:23;;;;;;;12.70;8.60;;;1.50;99.90;;;;;;5094588;28;20987;-55
2023/03/01 07:21:53;;;;;;;15.80;9.20;;;1.50;99.90;;;;;;5087984;28;20527;-61
2023/03/01 07:24:24;;;;;;;15.87;11.53;;;2.10;99.90;;;;;;5087871;28;20426;-60
2023/03/01 07:26:53;;;;;;;19.43;10.10;;;1.60;99.90;;;;;;5095295;28;20557;-59
2023/03/01 07:29:20;;;;;;;13.63;9.40;;;1.70;99.90;;;;;;5085786;28;20443;-59
2023/03/01 07:31:50;;;;;;;14.00;9.07;;;1.80;99.90;;;;;;5088277;28;20438;-61
2023/03/01 07:34:18;;;;;;;19.17;11.63;;;1.90;99.90;;;;;;5087162;28;20465;-61
2023/03/01 07:36:45;;;;;;;21.63;11.13;;;1.90;99.90;;;;;;5094854;28;20534;-58
2023/03/01 07:39:12;;;;;;;16.10;10.27;;;2.00;99.90;;;;;;5097905;28;20449;-62
2023/03/01 07:41:41;;;;;;;18.97;10.47;;;2.10;99.90;;;;;;5084007;28;20443;-62
2023/03/01 07:44:08;;;;;;;15.50;10.27;;;2.20;99.90;;;;;;5076933;28;20451;-62
2023/03/01 07:46:41;;;;;;;14.47;9.17;;;2.30;99.90;;;;;;5076486;28;20428;-60
2023/03/01 07:49:07;;;;;;;14.53;10.07;;;2.30;99.90;;;;;;5084183;28;20439;-60
2023/03/01 07:51:34;;;;;;;29.63;11.80;;;2.30;99.90;;;;;;5097504;28;20481;-62
2023/03/01 07:54:01;;;;;;;17.13;12.57;;;2.40;99.90;;;;;;5097555;28;20453;-63
2023/03/01 07:56:28;;;;;;;13.87;10.30;;;2.50;99.90;;;;;;5097007;28;20482;-61
2023/03/01 07:58:57;;;;;;;17.57;11.20;;;2.50;99.90;;;;;;5097339;28;20427;-64
2023/03/01 08:01:24;;;;;;;26.90;10.97;;;2.60;99.90;;;;;;5095327;28;20472;-61
2023/03/01 08:03:51;;;;;;;24.23;11.47;;;2.70;99.90;;;;;;5095867;28;20442;-63
2023/03/01 08:06:19;;;;;;;20.00;10.80;;;2.70;99.90;;;;;;5096607;28;20445;-61
2023/03/01 08:08:48;;;;;;;15.83;10.33;;;2.80;99.90;;;;;;5096583;28;20479;-63
2023/03/01 08:11:15;;;;;;;22.80;12.60;;;2.90;99.90;;;;;;5096734;28;20438;-61
2023/03/01 08:13:43;;;;;;;20.90;11.10;;;3.00;99.90;;;;;;5096821;28;20462;-64
2023/03/01 08:16:14;;;;;;;12.47;8.90;;;3.10;99.90;;;;;;5097134;28;20474;-61
2023/03/01 08:18:41;;;;;;;18.00;10.60;;;3.20;99.90;;;;;;5078825;28;20496;-63
2023/03/01 08:21:10;;;;;;;21.67;12.10;;;3.30;99.90;;;;;;5077723;28;20408;-64
2023/03/01 08:23:40;;;;;;;11.90;9.80;;;3.30;99.90;;;;;;5076340;28;20522;-64
2023/03/01 08:26:09;;;;;;;18.27;10.50;;;3.40;99.90;;;;;;5077691;28;20429;-60
2023/03/01 08:28:43;;;;;;;21.23;12.17;;;3.50;99.90;;;;;;5078105;28;20435;-58
2023/03/01 08:31:20;;;;;;;14.20;9.47;;;3.50;99.90;;;;;;5077852;28;20486;-62
2023/03/01 08:33:50;;;;;;;17.87;9.00;;;3.60;99.90;;;;;;5077676;28;20422;-64
2023/03/01 08:36:20;;;;;;;11.70;8.30;;;3.70;99.90;;;;;;5077391;28;20483;-62
2023/03/01 08:38:47;;;;;;;16.03;8.90;;;3.80;99.90;;;;;;5078117;28;20438;-58
2023/03/01 08:41:16;;;;;;;13.73;8.17;;;3.90;99.90;;;;;;5078259;28;20475;-61
2023/03/01 08:43:43;;;;;;;14.10;8.73;;;4.00;99.90;;;;;;5078794;28;20447;-61
2023/03/01 08:46:11;;;;;;;16.07;8.47;;;4.10;99.90;;;;;;5078581;28;20419;-64
2023/03/01 08:48:43;;;;;;;16.93;9.67;;;4.20;99.90;;;;;;5078817;28;20423;-61
2023/03/01 08:51:12;;;;;;;21.97;8.40;;;4.20;99.90;;;;;;5078418;28;20438;-64
2023/03/01 08:53:44;;;;;;;16.80;7.50;;;4.30;99.90;;;;;;5077889;28;20455;-64
2023/03/01 08:56:12;;;;;;;12.03;5.67;;;4.40;99.90;;;;;;5078755;28;20546;-63
2023/03/01 08:58:46;;;;;;;9.50;5.40;;;4.40;99.90;;;;;;5077979;28;20458;-62
2023/03/01 09:01:16;;;;;;;9.30;5.87;;;4.50;99.90;;;;;;5077846;28;20872;-64
2023/03/01 09:03:45;;;;;;;12.27;6.33;;;4.60;99.90;;;;;;5076809;28;20481;-61
2023/03/01 09:06:12;;;;;;;9.20;6.13;;;4.70;99.90;;;;;;5077619;28;20443;-64
2023/03/01 09:08:42;;;;;;;17.60;5.80;;;4.80;99.90;;;;;;5078775;28;20485;-62
2023/03/01 09:11:11;;;;;;;59.87;25.73;;;4.90;99.90;;;;;;5078639;28;20428;-63
2023/03/01 09:13:42;;;;;;;11.30;6.50;;;4.90;99.90;;;;;;5078136;28;20436;-57
2023/03/01 09:16:13;;;;;;;15.63;6.67;;;4.90;99.90;;;;;;5077651;28;20497;-63
2023/03/01 09:18:40;;;;;;;11.10;6.00;;;5.00;99.90;;;;;;5076849;28;20404;-63
2023/03/01 09:21:12;;;;;;;13.90;6.90;;;5.10;99.90;;;;;;5076594;28;20467;-63
2023/03/01 09:23:42;;;;;;;10.57;6.53;;;5.30;99.90;;;;;;5076922;28;20477;-61
2023/03/01 09:26:10;;;;;;;13.20;7.50;;;5.40;99.90;;;;;;5076604;28;20490;-62
2023/03/01 09:28:38;;;;;;;12.93;6.20;;;5.60;99.90;;;;;;5076137;28;20460;-62
2023/03/01 09:31:05;;;;;;;11.90;6.57;;;5.70;99.90;;;;;;5076489;28;20435;-62
2023/03/01 09:33:34;;;;;;;9.70;6.83;;;5.90;99.90;;;;;;5076741;28;20443;-63
2023/03/01 09:36:02;;;;;;;10.27;6.30;;;6.10;99.90;;;;;;5077156;28;20495;-60
2023/03/01 09:38:31;;;;;;;10.47;5.37;;;6.20;99.90;;;;;;5076610;28;20447;-63
2023/03/01 09:40:58;;;;;;;7.53;4.97;;;6.30;99.90;;;;;;5075884;28;20420;-62
2023/03/01 09:43:31;;;;;;;12.63;5.93;;;6.30;99.90;;;;;;5075739;28;20459;-66
2023/03/01 09:46:01;;;;;;;11.47;5.40;;;6.50;99.90;;;;;;5076325;28;20797;-65
2023/03/01 09:48:34;;;;;;;7.50;4.87;;;7.10;99.90;;;;;;5076300;28;20430;-65
2023/03/01 09:51:07;;;;;;;8.83;5.40;;;8.10;99.90;;;;;;5076107;28;20424;-61
2023/03/01 09:53:36;;;;;;;10.70;5.87;;;8.70;97.00;;;;;;5076426;28;20458;-62
2023/03/01 09:56:12;;;;;;;13.87;5.40;;;8.90;94.60;;;;;;5076323;28;20483;-62
2023/03/01 09:58:51;;;;;;;7.77;5.30;;;9.00;92.10;;;;;;5076000;28;20403;-61
2023/03/01 10:01:34;;;;;;;9.10;5.60;;;9.80;90.90;;;;;;5075287;28;20462;-60
2023/03/01 10:04:24;;;;;;;9.70;5.20;;;11.40;81.20;;;;;;5073399;28;20428;-63
2023/03/01 10:07:02;;;;;;;10.43;6.00;;;13.30;66.80;;;;;;5072526;28;20463;-61
2023/03/01 10:09:34;;;;;;;8.23;4.87;;;14.80;57.60;;;;;;5071282;28;20465;-62
2023/03/01 10:12:05;;;;;;;7.50;5.10;;;15.60;52.40;;;;;;5070859;28;20528;-64
2023/03/01 10:14:37;;;;;;;5.43;4.70;;;16.30;50.40;;;;;;5071306;28;20455;-62
2023/03/01 10:17:09;;;;;;;10.70;5.00;;;16.70;47.40;;;;;;5070683;28;20530;-66
2023/03/01 10:19:41;;;;;;;5.03;3.70;;;16.80;46.70;;;;;;5070865;28;20431;-65
2023/03/01 10:22:16;;;;;;;6.13;4.60;;;17.10;45.80;;;;;;5071322;28;20459;-63
2023/03/01 10:24:46;;;;;;;10.67;4.90;;;17.20;44.10;;;;;;5071007;28;20509;-63
2023/03/01 10:27:18;;;;;;;5.70;4.10;;;17.40;43.40;;;;;;5071180;28;20424;-65
2023/03/01 10:29:51;;;;;;;6.00;3.70;;;16.20;41.10;;;;;;5070846;28;20455;-65
2023/03/01 10:32:21;;;;;;;7.50;4.00;;;17.30;41.40;;;;;;5070976;28;20439;-62
2023/03/01 10:34:48;;;;;;;7.63;6.13;;;17.30;41.10;;;;;;5069984;28;20467;-64
2023/03/01 10:37:18;;;;;;;6.17;3.60;;;17.20;41.20;;;;;;5072281;28;20467;-66
2023/03/01 10:40:05;;;;;;;5.73;3.63;;;17.20;42.30;;;;;;5071156;28;20467;-66
2023/03/01 10:42:34;;;;;;;6.43;4.43;;;17.20;41.30;;;;;;5071978;28;20436;-61
2023/03/01 10:45:18;;;;;;;7.70;4.60;;;17.20;42.10;;;;;;5070838;28;20467;-65
2023/03/01 10:47:45;;;;;;;6.97;4.57;;;17.10;41.70;;;;;;5070454;28;20427;-61
2023/03/01 10:50:20;;;;;;;8.07;5.47;;;17.00;41.50;;;;;;5070577;28;20439;-62
2023/03/01 10:52:59;;;;;;;7.87;4.83;;;16.90;42.10;;;;;;5068456;28;20423;-60
2023/03/01 10:55:34;;;;;;;5.53;4.63;;;16.80;42.90;;;;;;5062232;28;20443;-65
2023/03/01 10:58:10;;;;;;;9.80;4.97;;;16.90;42.20;;;;;;5061628;28;20414;-68
2023/03/01 11:00:48;;;;;;;11.47;5.10;;;16.80;41.50;;;;;;5061589;28;20530;-71
2023/03/01 11:03:17;;;;;;;5.30;3.83;;;16.60;41.30;;;;;;5060925;28;20486;-64
2023/03/01 11:06:07;;;;;;;8.33;4.30;;;16.40;41.70;;;;;;5061985;28;20518;-61
2023/03/01 11:08:37;;;;;;;7.50;3.37;;;16.30;41.20;;;;;;5055227;28;20478;-62
2023/03/01 11:11:25;;;;;;;6.30;3.97;;;15.90;42.00;;;;;;5061841;28;20463;-63
2023/03/01 11:13:55;;;;;;;10.57;4.37;;;15.80;42.30;;;;;;5061308;28;20458;-62
2023/03/01 11:16:35;;;;;;;7.97;4.00;;;15.60;42.10;;;;;;5060828;28;20486;-64
2023/03/01 11:19:15;;;;;;;5.93;4.50;;;15.30;42.40;;;;;;5061700;28;20521;-62
2023/03/01 11:21:50;;;;;;;5.07;4.27;;;14.90;41.30;;;;;;5063345;28;20435;-62
2023/03/01 11:24:19;;;;;;;9.20;4.80;;;14.40;42.00;;;;;;5067082;28;20475;-69
2023/03/01 11:26:52;;;;;;;8.50;4.23;;;14.10;43.40;;;;;;5068241;28;20459;-67
2023/03/01 11:29:28;;;;;;;9.10;4.70;;;13.70;44.20;;;;;;5068373;28;20447;-66
2023/03/01 11:32:00;;;;;;;5.63;3.77;;;13.20;45.20;;;;;;5070403;28;20431;-56
2023/03/01 11:34:38;;;;;;;4.90;4.03;;;12.80;43.30;;;;;;5077968;28;20423;-65
2023/03/01 11:37:14;;;;;;;4.73;3.17;;;12.40;43.60;;;;;;5078913;28;20462;-64
2023/03/01 11:39:48;;;;;;;8.60;3.23;;;11.90;43.50;;;;;;5079125;28;20473;-61
2023/03/01 11:42:20;;;;;;;5.57;3.80;;;11.60;44.50;;;;;;5078294;28;20471;-62
2023/03/01 11:44:51;;;;;;;7.27;4.60;;;11.30;44.20;;;;;;5077776;28;20427;-61
2023/03/01 11:47:32;;;;;;;8.47;4.77;;;11.10;45.40;;;;;;5078443;28;20466;-63
2023/03/01 11:50:26;;;;;;;8.13;3.53;;;10.90;46.10;;;;;;5077793;28;20427;-61
2023/03/01 11:53:03;;;;;;;6.27;3.30;;;10.70;47.00;;;;;;5077844;28;20486;-64
2023/03/01 11:55:52;;;;;;;12.33;4.03;;;10.50;47.30;;;;;;5075120;28;20479;-65
2023/03/01 11:58:35;;;;;;;8.33;3.87;;;10.40;46.30;;;;;;5072212;28;20934;-65
2023/03/01 12:01:27;;;;;;;6.00;3.47;;;10.10;47.30;;;;;;5072855;28;20465;-65
2023/03/01 12:04:16;;;;;;;6.43;2.20;;;10.00;47.20;;;;;;5071884;28;20475;-63
2023/03/01 12:06:57;;;;;;;5.07;3.23;;;9.80;46.40;;;;;;5072385;28;20463;-60
2023/03/01 12:09:48;;;;;;;4.50;2.80;;;9.60;46.60;;;;;;5073925;28;20457;-64
2023/03/01 12:12:30;;;;;;;5.40;3.00;;;9.60;46.80;;;;;;5078187;28;20443;-64
2023/03/01 12:15:24;;;;;;;6.67;2.90;;;9.60;47.20;;;;;;5077393;28;20463;-66
2023/03/01 12:18:18;;;;;;;3.80;2.63;;;9.60;46.80;;;;;;5074667;28;20554;-63
2023/03/01 12:20:51;;;;;;;3.37;2.80;;;9.70;47.20;;;;;;5077547;28;20509;-66
2023/03/01 12:23:50;;;;;;;8.00;5.73;;;9.80;47.50;;;;;;5074277;28;20427;-64
2023/03/01 12:26:25;;;;;;;9.43;4.00;;;9.80;47.50;;;;;;5071987;28;20519;-62
2023/03/01 12:29:14;;;;;;;2.83;2.33;;;9.90;47.80;;;;;;5072240;28;20478;-65
2023/03/01 12:32:13;;;;;;;5.97;2.73;;;10.00;46.20;;;;;;5073188;28;20455;-64
2023/03/01 12:35:12;;;;;;;8.47;2.33;;;10.00;46.00;;;;;;5073131;28;20459;-61
2023/03/01 12:37:49;;;;;;;6.37;2.57;;;10.10;46.70;;;;;;5066672;28;20812;-63
2023/03/01 12:40:48;;;;;;;6.90;3.57;;;10.10;46.80;;;;;;5072204;28;20419;-63
2023/03/01 12:43:27;;;;;;;4.27;2.53;;;10.20;47.20;;;;;;5071349;28;20470;-63
2023/03/01 12:46:20;;;;;;;4.70;3.23;;;10.20;46.60;;;;;;5072434;28;20428;-62
2023/03/01 12:48:59;;;;;;;3.07;2.00;;;10.20;46.00;;;;;;5071607;28;20452;-61
2023/03/01 12:51:32;;;;;;;5.43;2.20;;;10.10;44.60;;;;;;5072891;28;20427;-62
2023/03/01 12:54:02;;;;;;;1.67;1.50;;;10.10;45.60;;;;;;5072618;28;20423;-62
2023/03/01 12:56:31;;;;;;;1.83;1.67;;;10.20;45.50;;;;;;5072659;28;20443;-66
2023/03/01 12:59:05;;;;;;;2.57;1.97;;;10.20;44.00;;;;;;5077326;28;20443;-65
2023/03/01 13:01:41;;;;;;;4.17;2.50;;;10.20;43.50;;;;;;5074855;28;20419;-63
2023/03/01 13:04:30;;;;;;;3.30;2.23;;;10.10;44.10;;;;;;5076436;28;20438;-66
2023/03/01 13:07:15;;;;;;;4.50;2.30;;;10.10;44.80;;;;;;5077287;28;20416;-62